createdAt,value
2023-05-19T00:02:33.742Z,98213.47
2023-05-19T00:05:21.097Z,98203.63
2023-05-19T00:08:10.744Z,98203.19
2023-05-19T00:10:58.563Z,98202.50
2023-05-19T00:13:49.605Z,98196.50
2023-05-19T00:16:42.250Z,98200.50
2023-05-19T00:19:32.235Z,98197.25
2023-05-19T00:22:19.173Z,98194.31
2023-05-19T00:25:06.886Z,98192.63
2023-05-19T00:27:53.701Z,98196.75
2023-05-19T00:30:40.555Z,98199.16
2023-05-19T00:33:27.584Z,98190.09
2023-05-19T00:36:14.549Z,98190.16
2023-05-19T00:39:01.458Z,98189.97
2023-05-19T00:41:48.388Z,98189.75
2023-05-19T00:44:40.169Z,98179.56
2023-05-19T00:47:27.128Z,98180.59
2023-05-19T00:50:14.025Z,98174.75
2023-05-19T00:53:00.999Z,98169.72
2023-05-19T00:55:48.255Z,98163.34
2023-05-19T00:58:36.488Z,98168.97
2023-05-19T01:01:23.519Z,98164.75
2023-05-19T01:04:11.372Z,98166.97
2023-05-19T01:06:58.327Z,98157.63
2023-05-19T01:09:46.015Z,98155.72
2023-05-19T01:12:36.436Z,98154.44
2023-05-19T01:15:26.968Z,98152.38
2023-05-19T01:18:18.358Z,98152.25
2023-05-19T01:21:17.018Z,98151.66
2023-05-19T01:24:32.356Z,98154.03
2023-05-19T01:27:29.711Z,98152.25
2023-05-19T01:30:16.525Z,98149.53
2023-05-19T01:33:07.314Z,98150.09
2023-05-19T01:35:55.694Z,98152.09
2023-05-19T01:38:43.499Z,98150.63
2023-05-19T01:41:32.475Z,98146.63
2023-05-19T01:44:19.683Z,98142.66
2023-05-19T01:47:07.285Z,98143.34
2023-05-19T01:49:54.135Z,98140.41
2023-05-19T01:52:41.019Z,98135.28
2023-05-19T01:55:28.019Z,98143.38
2023-05-19T01:58:36.194Z,98136.03
2023-05-19T02:01:43.374Z,98140.75
2023-05-19T02:04:31.289Z,98142.25
2023-05-19T02:07:42.048Z,98139.09
2023-05-19T02:10:32.994Z,98144.31
2023-05-19T02:13:22.619Z,98145.94
2023-05-19T02:16:11.259Z,98144.47
2023-05-19T02:18:59.564Z,98138.34
2023-05-19T02:21:46.562Z,98136.78
2023-05-19T02:24:33.443Z,98140.03
2023-05-19T02:27:20.329Z,98132.09
2023-05-19T02:30:08.871Z,98131.91
2023-05-19T02:32:55.778Z,98128.38
2023-05-19T02:35:42.672Z,98130.78
2023-05-19T02:38:29.520Z,98139.75
2023-05-19T02:41:16.372Z,98135.28
2023-05-19T02:44:03.442Z,98134.78
2023-05-19T02:46:50.514Z,98128.53
2023-05-19T02:49:37.845Z,98122.81
2023-05-19T02:52:24.968Z,98119.94
2023-05-19T02:55:16.969Z,98121.66
2023-05-19T02:58:04.187Z,98121.50
2023-05-19T03:00:51.479Z,98119.03
2023-05-19T03:03:38.454Z,98121.34
2023-05-19T03:06:25.388Z,98116.09
2023-05-19T03:09:15.393Z,98110.84
2023-05-19T03:12:04.009Z,98111.31
2023-05-19T03:14:51.154Z,98109.72
2023-05-19T03:17:39.243Z,98110.03
2023-05-19T03:20:26.223Z,98110.97
2023-05-19T03:23:14.249Z,98113.31
2023-05-19T03:26:01.349Z,98110.53
2023-05-19T03:28:48.184Z,98105.25
2023-05-19T03:31:35.156Z,98102.34
2023-05-19T03:34:22.461Z,98109.75
2023-05-19T03:37:10.725Z,98104.81
2023-05-19T03:39:57.601Z,98112.03
2023-05-19T03:42:44.541Z,98115.59
2023-05-19T03:45:31.438Z,98105.94
2023-05-19T03:48:21.121Z,98107.94
2023-05-19T03:51:09.018Z,98104.53
2023-05-19T03:53:56.171Z,98104.16
2023-05-19T03:56:43.377Z,98109.06
2023-05-19T03:59:30.232Z,98102.97
2023-05-19T04:02:17.140Z,98102.03
2023-05-19T04:05:07.201Z,98101.47
2023-05-19T04:07:54.062Z,98099.69
2023-05-19T04:10:40.925Z,98104.03
2023-05-19T04:13:27.962Z,98106.06
2023-05-19T04:16:15.053Z,98108.47
2023-05-19T04:19:02.025Z,98103.59
2023-05-19T04:21:49.006Z,98108.78
2023-05-19T04:24:36.178Z,98107.00
2023-05-19T04:27:23.098Z,98116.34
2023-05-19T04:30:10.280Z,98106.22
2023-05-19T04:32:58.187Z,98112.25
2023-05-19T04:35:45.216Z,98120.84
2023-05-19T04:38:32.324Z,98115.78
2023-05-19T04:41:19.279Z,98117.22
2023-05-19T04:44:08.972Z,98116.94
2023-05-19T04:46:57.846Z,98120.97
2023-05-19T04:49:44.857Z,98105.19
2023-05-19T04:52:32.152Z,98099.22
2023-05-19T04:55:19.168Z,98106.47
2023-05-19T04:58:06.423Z,98102.47
2023-05-19T05:00:57.850Z,98103.63
2023-05-19T05:03:44.701Z,98106.41
2023-05-19T05:06:32.360Z,98101.75
2023-05-19T05:09:20.167Z,98109.75
2023-05-19T05:12:08.085Z,98112.31
2023-05-19T05:14:55.460Z,98111.06
2023-05-19T05:17:43.654Z,98119.63
2023-05-19T05:20:31.478Z,98104.38
2023-05-19T05:23:18.815Z,98105.81
2023-05-19T05:26:16.687Z,98114.25
2023-05-19T05:29:04.153Z,98103.88
2023-05-19T05:31:51.155Z,98098.41
2023-05-19T05:34:39.848Z,98103.88
2023-05-19T05:37:26.686Z,98105.50
2023-05-19T05:40:13.664Z,98102.16
2023-05-19T05:43:00.639Z,98106.00
2023-05-19T05:45:47.647Z,98099.91
2023-05-19T05:48:35.017Z,98100.44
2023-05-19T05:51:23.025Z,98099.91
2023-05-19T05:54:12.201Z,98087.34
2023-05-19T05:56:59.502Z,98102.34
2023-05-19T05:59:47.181Z,98097.75
2023-05-19T06:02:34.358Z,98098.81
2023-05-19T06:05:21.556Z,98098.94
2023-05-19T06:08:08.493Z,98095.22
2023-05-19T06:10:55.444Z,98095.44
2023-05-19T06:13:42.441Z,98094.47
2023-05-19T06:16:29.477Z,98101.66
2023-05-19T06:19:16.716Z,98104.53
2023-05-19T06:22:03.874Z,98092.97
2023-05-19T06:24:50.811Z,98099.09
2023-05-19T06:27:37.650Z,98098.94
2023-05-19T06:30:24.562Z,98090.50
2023-05-19T06:33:11.880Z,98091.38
2023-05-19T06:35:59.607Z,98087.94
2023-05-19T06:38:46.551Z,98089.19
2023-05-19T06:41:34.588Z,98083.69
2023-05-19T06:44:22.674Z,98085.34
2023-05-19T06:47:15.134Z,98089.91
2023-05-19T06:50:01.999Z,98085.84
2023-05-19T06:52:48.873Z,98093.88
2023-05-19T06:55:41.398Z,98099.50
2023-05-19T06:58:39.412Z,98094.28
2023-05-19T07:01:27.992Z,98098.22
2023-05-19T07:04:15.673Z,98098.59
2023-05-19T07:07:03.029Z,98094.00
2023-05-19T07:09:49.987Z,98094.38
2023-05-19T07:12:36.815Z,98093.59
2023-05-19T07:15:23.756Z,98093.31
2023-05-19T07:18:10.809Z,98095.25
2023-05-19T07:20:58.473Z,98097.66
2023-05-19T07:23:45.506Z,98092.97
2023-05-19T07:26:32.389Z,98084.47
2023-05-19T07:29:19.312Z,98085.66
2023-05-19T07:32:06.744Z,98067.41
2023-05-19T07:34:53.640Z,98065.78
2023-05-19T07:37:40.585Z,98067.13
2023-05-19T07:40:27.427Z,98069.22
2023-05-19T07:43:14.351Z,98060.91
2023-05-19T07:46:01.253Z,98055.78
2023-05-19T07:48:48.278Z,98061.19
2023-05-19T07:51:35.174Z,98055.47
2023-05-19T07:54:22.132Z,98051.41
2023-05-19T07:57:08.960Z,98047.31
2023-05-19T07:59:55.895Z,98044.06
2023-05-19T08:02:42.872Z,98054.16
2023-05-19T08:05:30.051Z,98054.53
2023-05-19T08:08:17.119Z,98057.09
2023-05-19T08:11:21.976Z,98060.59
2023-05-19T08:14:09.068Z,98054.22
2023-05-19T08:16:56.390Z,98051.41
2023-05-19T08:19:43.540Z,98055.22
2023-05-19T08:22:30.438Z,98047.41
2023-05-19T08:25:17.301Z,98044.88
2023-05-19T08:28:04.332Z,98043.72
2023-05-19T08:30:52.523Z,98035.16
2023-05-19T08:33:39.434Z,98035.19
2023-05-19T08:36:26.388Z,98032.72
2023-05-19T08:39:14.203Z,98023.34
2023-05-19T08:42:02.363Z,98011.59
2023-05-19T08:44:49.484Z,98014.03
2023-05-19T08:47:36.649Z,98018.34
2023-05-19T08:50:30.701Z,98025.25
2023-05-19T08:53:33.303Z,98024.88
2023-05-19T08:56:25.327Z,98024.41
2023-05-19T08:59:14.588Z,98010.59
2023-05-19T09:02:02.306Z,98010.78
2023-05-19T09:04:49.453Z,98007.53
2023-05-19T09:07:38.246Z,98010.56
2023-05-19T09:10:26.059Z,98005.94
2023-05-19T09:13:14.048Z,98009.69
2023-05-19T09:16:02.067Z,98009.03
2023-05-19T09:18:56.501Z,98011.06
2023-05-19T09:21:45.700Z,98017.00
2023-05-19T09:24:34.510Z,98007.00
2023-05-19T09:27:23.494Z,98001.75
2023-05-19T09:30:10.583Z,97997.56
2023-05-19T09:32:57.611Z,97999.34
2023-05-19T09:35:47.462Z,97989.66
2023-05-19T09:38:38.526Z,97981.81
2023-05-19T09:41:26.417Z,97981.97
2023-05-19T09:44:35.096Z,97978.31
2023-05-19T09:47:21.982Z,97978.63
2023-05-19T09:50:10.994Z,97976.69
2023-05-19T09:52:58.553Z,97971.34
2023-05-19T09:55:45.655Z,97971.19
2023-05-19T09:58:36.700Z,97968.16
2023-05-19T10:01:24.529Z,97969.53
2023-05-19T10:04:12.598Z,97959.09
2023-05-19T10:07:00.163Z,97963.97
2023-05-19T10:09:49.082Z,97958.97
2023-05-19T10:12:38.006Z,97966.19
2023-05-19T10:15:25.281Z,97957.41
2023-05-19T10:18:12.429Z,97947.13
2023-05-19T10:21:00.699Z,97953.81
2023-05-19T10:23:47.584Z,97948.59
2023-05-19T10:26:35.781Z,97934.53
2023-05-19T10:29:28.163Z,97931.41
2023-05-19T10:32:19.774Z,97932.88
2023-05-19T10:35:25.670Z,97936.91
2023-05-19T10:38:35.579Z,97928.25
2023-05-19T10:41:40.393Z,97924.09
2023-05-19T10:44:52.497Z,97927.84
2023-05-19T10:47:42.549Z,97924.47
2023-05-19T10:50:37.767Z,97920.31
2023-05-19T10:53:31.781Z,97919.34
2023-05-19T10:56:36.378Z,97912.50
2023-05-19T10:59:34.653Z,97905.34
2023-05-19T11:02:41.298Z,97908.72
2023-05-19T11:05:29.833Z,97899.31
2023-05-19T11:08:17.981Z,97904.31
2023-05-19T11:11:16.501Z,97908.53
2023-05-19T11:14:04.268Z,97904.56
2023-05-19T11:16:53.010Z,97901.69
2023-05-19T11:19:41.943Z,97893.91
2023-05-19T11:22:28.867Z,97891.09
2023-05-19T11:25:38.295Z,97896.13
2023-05-19T11:28:26.658Z,97889.72
2023-05-19T11:31:13.729Z,97884.44
2023-05-19T11:34:00.946Z,97885.28
2023-05-19T11:36:48.753Z,97885.78
2023-05-19T11:39:35.899Z,97887.75
2023-05-19T11:42:23.632Z,97886.16
2023-05-19T11:45:10.678Z,97892.03
2023-05-19T11:48:02.818Z,97876.31
2023-05-19T11:50:50.866Z,97883.47
2023-05-19T11:53:38.729Z,97876.88
2023-05-19T11:56:25.646Z,97871.13
2023-05-19T11:59:12.642Z,97876.25
2023-05-19T12:02:14.429Z,97881.06
2023-05-19T12:05:01.988Z,97872.41
2023-05-19T12:07:52.187Z,97868.81
2023-05-19T12:10:40.576Z,97868.94
2023-05-19T12:13:27.617Z,97864.50
2023-05-19T12:16:14.734Z,97864.97
2023-05-19T12:19:02.318Z,97863.94
2023-05-19T12:21:49.520Z,97860.25
2023-05-19T12:24:37.930Z,97855.53
2023-05-19T12:27:26.518Z,97848.63
2023-05-19T12:30:13.365Z,97846.03
2023-05-19T12:33:02.153Z,97850.94
2023-05-19T12:35:50.023Z,97846.03
2023-05-19T12:38:39.549Z,97841.28
2023-05-19T12:41:27.343Z,97842.66
2023-05-19T12:44:17.559Z,97845.19
2023-05-19T12:47:05.990Z,97837.91
2023-05-19T12:49:57.274Z,97836.03
2023-05-19T12:52:46.827Z,97840.84
2023-05-19T12:55:42.934Z,97836.63
2023-05-19T12:58:34.241Z,97836.53
2023-05-19T13:01:22.796Z,97827.88
2023-05-19T13:04:09.886Z,97821.25
2023-05-19T13:06:56.821Z,97822.56
2023-05-19T13:09:43.723Z,97808.34
2023-05-19T13:12:30.732Z,97812.66
2023-05-19T13:15:17.755Z,97813.41
2023-05-19T13:18:07.187Z,97811.47
2023-05-19T13:20:54.682Z,97809.09
2023-05-19T13:23:41.626Z,97807.78
2023-05-19T13:26:28.489Z,97807.03
2023-05-19T13:29:15.414Z,97795.13
2023-05-19T13:32:02.344Z,97798.50
2023-05-19T13:34:49.260Z,97789.00
2023-05-19T13:37:36.299Z,97794.09
2023-05-19T13:40:24.210Z,97797.31
2023-05-19T13:43:11.153Z,97791.81
2023-05-19T13:45:58.022Z,97787.38
2023-05-19T13:48:44.893Z,97779.44
2023-05-19T13:51:31.874Z,97779.66
2023-05-19T13:54:18.732Z,97788.91
2023-05-19T13:57:06.293Z,97784.84
2023-05-19T14:00:02.798Z,97781.84
2023-05-19T14:02:50.889Z,97784.72
2023-05-19T14:05:37.998Z,97785.66
2023-05-19T14:08:24.849Z,97780.97
2023-05-19T14:11:21.540Z,97782.63
2023-05-19T14:14:09.916Z,97784.09
2023-05-19T14:16:58.222Z,97772.31
2023-05-19T14:19:45.131Z,97773.31
2023-05-19T14:22:32.299Z,97772.69
2023-05-19T14:25:19.182Z,97771.59
2023-05-19T14:28:06.020Z,97765.56
2023-05-19T14:30:53.006Z,97769.78
2023-05-19T14:33:43.233Z,97778.75
2023-05-19T14:36:30.155Z,97771.75
2023-05-19T14:39:17.079Z,97765.69
2023-05-19T14:42:04.012Z,97771.84
2023-05-19T14:44:50.874Z,97777.66
2023-05-19T14:47:38.010Z,97768.06
2023-05-19T14:50:26.096Z,97766.63
2023-05-19T14:53:14.006Z,97780.53
2023-05-19T14:56:00.943Z,97767.06
2023-05-19T14:58:47.785Z,97785.22
2023-05-19T15:01:34.694Z,97783.19
2023-05-19T15:04:21.778Z,97776.56
2023-05-19T15:07:10.262Z,97781.50
2023-05-19T15:09:57.955Z,97770.47
2023-05-19T15:12:44.869Z,97777.69
2023-05-19T15:15:32.083Z,97775.41
2023-05-19T15:18:18.985Z,97776.47
2023-05-19T15:21:05.969Z,97776.00
2023-05-19T15:23:52.881Z,97776.59
2023-05-19T15:26:39.836Z,97781.72
2023-05-19T15:29:26.705Z,97776.84
2023-05-19T15:32:13.652Z,97782.72
2023-05-19T15:35:00.730Z,97778.41
2023-05-19T15:37:47.581Z,97776.47
2023-05-19T15:40:34.786Z,97786.31
2023-05-19T15:43:22.197Z,97782.72
2023-05-19T15:46:09.165Z,97787.16
2023-05-19T15:48:56.142Z,97789.81
2023-05-19T15:51:43.105Z,97783.22
2023-05-19T15:54:29.979Z,97784.88
2023-05-19T15:57:16.853Z,97779.25
2023-05-19T16:00:03.996Z,97783.19
2023-05-19T16:02:51.233Z,97779.56
2023-05-19T16:05:38.217Z,97778.97
2023-05-19T16:08:25.459Z,97783.44
2023-05-19T16:11:12.500Z,97773.59
2023-05-19T16:13:59.491Z,97767.09
2023-05-19T16:16:46.674Z,97767.44
2023-05-19T16:19:33.602Z,97772.97
2023-05-19T16:22:24.530Z,97772.88
2023-05-19T16:25:11.530Z,97772.97
2023-05-19T16:27:58.540Z,97779.38
2023-05-19T16:30:46.133Z,97778.53
2023-05-19T16:33:33.025Z,97774.81
2023-05-19T16:36:22.698Z,97778.28
2023-05-19T16:39:09.608Z,97768.16
2023-05-19T16:41:56.480Z,97772.84
2023-05-19T16:44:43.459Z,97772.25
2023-05-19T16:47:30.373Z,97767.78
2023-05-19T16:50:17.415Z,97764.44
2023-05-19T16:53:04.341Z,97760.72
2023-05-19T16:55:51.235Z,97755.09
2023-05-19T16:58:38.077Z,97757.09
2023-05-19T17:01:25.017Z,97774.75
2023-05-19T17:04:11.956Z,97773.31
2023-05-19T17:06:58.911Z,97767.88
2023-05-19T17:09:45.767Z,97768.34
2023-05-19T17:12:32.787Z,97762.13
2023-05-19T17:15:19.738Z,97768.72
2023-05-19T17:18:06.816Z,97769.44
2023-05-19T17:20:54.044Z,97774.69
2023-05-19T17:23:40.983Z,97767.44
2023-05-19T17:26:30.567Z,97767.06
2023-05-19T17:29:17.499Z,97776.03
2023-05-19T17:32:04.774Z,97768.84
2023-05-19T17:34:51.749Z,97772.53
2023-05-19T17:37:38.601Z,97770.97
2023-05-19T17:40:25.525Z,97762.91
2023-05-19T17:43:12.713Z,97763.41
2023-05-19T17:46:01.051Z,97763.75
2023-05-19T17:48:48.172Z,97763.50
2023-05-19T17:51:35.343Z,97759.88
2023-05-19T17:54:22.473Z,97760.97
2023-05-19T17:57:14.680Z,97768.81
2023-05-19T18:00:02.990Z,97773.72
2023-05-19T18:02:50.394Z,97764.94
2023-05-19T18:05:39.986Z,97781.34
2023-05-19T18:08:28.421Z,97785.81
2023-05-19T18:11:16.128Z,97785.13
2023-05-19T18:14:03.157Z,97782.25
2023-05-19T18:16:50.153Z,97777.78
2023-05-19T18:19:37.080Z,97786.97
2023-05-19T18:22:23.957Z,97781.34
2023-05-19T18:25:10.834Z,97780.47
2023-05-19T18:28:00.477Z,97785.09
2023-05-19T18:30:47.349Z,97786.69
2023-05-19T18:33:34.676Z,97784.28
2023-05-19T18:36:21.632Z,97792.06
2023-05-19T18:39:08.513Z,97788.47
2023-05-19T18:41:55.472Z,97787.47
2023-05-19T18:44:46.685Z,97798.06
2023-05-19T18:47:33.589Z,97785.75
2023-05-19T18:50:20.651Z,97788.66
2023-05-19T18:53:07.555Z,97792.56
2023-05-19T18:55:54.423Z,97800.00
2023-05-19T18:58:41.304Z,97799.88
2023-05-19T19:01:28.330Z,97808.44
2023-05-19T19:04:16.635Z,97811.44
2023-05-19T19:07:05.552Z,97810.00
2023-05-19T19:09:52.406Z,97821.19
2023-05-19T19:12:39.358Z,97820.31
2023-05-19T19:15:28.295Z,97820.66
2023-05-19T19:18:15.164Z,97816.56
2023-05-19T19:21:06.030Z,97817.03
2023-05-19T19:23:54.680Z,97817.88
2023-05-19T19:26:41.591Z,97819.75
2023-05-19T19:29:28.422Z,97824.41
2023-05-19T19:32:15.362Z,97830.22
2023-05-19T19:35:02.267Z,97840.22
2023-05-19T19:37:49.191Z,97831.38
2023-05-19T19:40:36.391Z,97834.00
2023-05-19T19:43:23.686Z,97835.31
2023-05-19T19:46:10.584Z,97845.31
2023-05-19T19:49:00.633Z,97837.06
2023-05-19T19:51:47.561Z,97836.63
2023-05-19T19:54:34.549Z,97835.03
2023-05-19T19:57:21.758Z,97837.66
2023-05-19T20:00:09.269Z,97845.88
2023-05-19T20:03:05.174Z,97847.75
2023-05-19T20:05:55.157Z,97846.16
2023-05-19T20:08:42.073Z,97845.16
2023-05-19T20:11:29.016Z,97852.09
2023-05-19T20:14:18.765Z,97848.78
2023-05-19T20:17:05.816Z,97860.63
2023-05-19T20:19:52.723Z,97866.69
2023-05-19T20:22:39.682Z,97869.72
2023-05-19T20:25:27.055Z,97868.53
2023-05-19T20:28:13.947Z,97868.25
2023-05-19T20:31:00.957Z,97870.13
2023-05-19T20:33:47.950Z,97874.63
2023-05-19T20:36:34.874Z,97870.44
2023-05-19T20:39:21.725Z,97864.63
2023-05-19T20:42:08.624Z,97869.38
2023-05-19T20:44:55.793Z,97868.84
2023-05-19T20:47:42.742Z,97876.66
2023-05-19T20:50:29.848Z,97868.97
2023-05-19T20:53:16.808Z,97863.88
2023-05-19T20:56:05.254Z,97869.22
2023-05-19T20:58:52.130Z,97870.53
2023-05-19T21:01:39.213Z,97866.59
2023-05-19T21:04:26.203Z,97867.03
2023-05-19T21:07:13.204Z,97879.31
2023-05-19T21:10:00.153Z,97870.06
2023-05-19T21:12:47.249Z,97863.78
2023-05-19T21:15:34.595Z,97876.66
2023-05-19T21:18:21.502Z,97866.53
2023-05-19T21:21:08.364Z,97866.78
2023-05-19T21:23:55.348Z,97864.91
2023-05-19T21:26:43.094Z,97853.34
2023-05-19T21:29:30.052Z,97864.03
2023-05-19T21:32:16.906Z,97864.19
2023-05-19T21:35:04.588Z,97864.16
2023-05-19T21:37:51.502Z,97857.94
2023-05-19T21:40:38.422Z,97858.75
2023-05-19T21:43:25.952Z,97855.00
2023-05-19T21:46:12.898Z,97857.00
2023-05-19T21:48:59.732Z,97857.00
2023-05-19T21:51:46.567Z,97851.50
2023-05-19T21:54:33.870Z,97856.97
2023-05-19T21:57:20.777Z,97859.13
2023-05-19T22:00:08.636Z,97863.00
2023-05-19T22:02:55.643Z,97858.69
2023-05-19T22:05:42.505Z,97855.59
2023-05-19T22:08:29.423Z,97867.16
2023-05-19T22:11:17.999Z,97865.44
2023-05-19T22:14:04.944Z,97867.00
2023-05-19T22:16:52.136Z,97864.34
2023-05-19T22:19:39.008Z,97866.53
2023-05-19T22:22:26.174Z,97857.59
2023-05-19T22:25:13.143Z,97858.00
2023-05-19T22:28:01.248Z,97850.03
2023-05-19T22:30:48.158Z,97840.59
2023-05-19T22:33:35.037Z,97849.13
2023-05-19T22:36:22.054Z,97853.28
2023-05-19T22:39:08.906Z,97846.75
2023-05-19T22:41:55.801Z,97849.09
2023-05-19T22:44:43.380Z,97846.91
2023-05-19T22:47:30.361Z,97834.97
2023-05-19T22:50:17.408Z,97828.75
2023-05-19T22:53:04.327Z,97820.47
2023-05-19T22:55:51.377Z,97832.16
2023-05-19T22:58:38.325Z,97832.16
2023-05-19T23:01:25.219Z,97824.16
2023-05-19T23:04:12.310Z,97819.19
2023-05-19T23:06:59.719Z,97822.66
2023-05-19T23:09:46.893Z,97810.81
2023-05-19T23:12:33.725Z,97813.72
2023-05-19T23:15:20.664Z,97813.25
2023-05-19T23:18:08.668Z,97809.38
2023-05-19T23:20:55.744Z,97798.88
2023-05-19T23:23:42.631Z,97793.06
2023-05-19T23:26:29.519Z,97799.38
2023-05-19T23:29:16.405Z,97792.34
2023-05-19T23:32:03.487Z,97797.75
2023-05-19T23:34:50.327Z,97792.13
2023-05-19T23:37:37.258Z,97796.72
2023-05-19T23:40:24.134Z,97793.25
2023-05-19T23:43:11.168Z,97795.44
2023-05-19T23:45:58.692Z,97796.25
2023-05-19T23:48:45.566Z,97791.66
2023-05-19T23:51:32.435Z,97791.47
2023-05-19T23:54:19.280Z,97797.13
2023-05-19T23:57:07.830Z,97794.22
2023-05-19T23:59:54.725Z,97795.03
